createdAt,value
2019-05-06T00:00:55.378Z,11.40
2019-05-06T00:03:15.775Z,11.51
2019-05-06T00:05:45.492Z,11.56
2019-05-06T00:08:15.234Z,11.31
2019-05-06T00:10:44.950Z,11.16
2019-05-06T00:13:14.593Z,11.02
2019-05-06T00:15:44.200Z,11.01
2019-05-06T00:18:14.013Z,10.96
2019-05-06T00:20:43.881Z,10.91
2019-05-06T00:23:19.064Z,10.80
2019-05-06T00:26:13.783Z,10.40
2019-05-06T00:28:46.809Z,10.18
2019-05-06T00:31:18.061Z,9.84
2019-05-06T00:33:47.683Z,10.24
2019-05-06T00:36:17.285Z,10.48
2019-05-06T00:38:49.862Z,10.89
2019-05-06T00:41:26.788Z,11.29
2019-05-06T00:43:56.377Z,10.85
2019-05-06T00:46:26.107Z,10.93
2019-05-06T00:48:55.846Z,10.92
2019-05-06T00:51:25.459Z,11.65
2019-05-06T00:54:04.071Z,11.51
2019-05-06T00:56:34.225Z,11.52
2019-05-06T00:59:03.978Z,11.18
2019-05-06T01:01:34.459Z,11.14
2019-05-06T01:04:04.971Z,11.13
2019-05-06T01:06:34.758Z,11.16
2019-05-06T01:09:07.661Z,11.20
2019-05-06T01:11:37.221Z,11.21
2019-05-06T01:14:17.851Z,10.98
2019-05-06T01:16:47.383Z,10.79
2019-05-06T01:19:16.912Z,10.67
2019-05-06T01:21:46.442Z,10.96
2019-05-06T01:24:16.026Z,10.76
2019-05-06T01:26:45.592Z,10.85
2019-05-06T01:29:15.187Z,10.86
2019-05-06T01:31:46.184Z,10.97
2019-05-06T01:34:15.754Z,10.84
2019-05-06T01:36:45.345Z,10.49
2019-05-06T01:39:31.407Z,10.04
2019-05-06T01:42:15.068Z,9.70
2019-05-06T01:44:44.658Z,9.83
2019-05-06T01:47:14.621Z,9.94
2019-05-06T01:49:44.362Z,10.05
2019-05-06T01:52:14.722Z,9.97
2019-05-06T01:54:44.383Z,9.60
2019-05-06T01:57:14.002Z,9.38
2019-05-06T01:59:44.330Z,9.62
2019-05-06T02:02:14.402Z,9.41
2019-05-06T02:04:44.469Z,9.18
2019-05-06T02:07:14.539Z,9.16
2019-05-06T02:09:44.805Z,9.21
2019-05-06T02:12:14.458Z,8.52
2019-05-06T02:14:43.965Z,8.65
2019-05-06T02:17:14.448Z,9.62
2019-05-06T02:19:44.190Z,9.64
2019-05-06T02:22:24.132Z,10.08
2019-05-06T02:25:04.452Z,9.47
2019-05-06T02:27:34.165Z,9.02
2019-05-06T02:30:26.393Z,9.08
2019-05-06T02:33:10.797Z,9.36
2019-05-06T02:36:03.017Z,8.81
2019-05-06T02:38:46.007Z,9.15
2019-05-06T02:41:04.885Z,9.18
2019-05-06T02:43:34.840Z,9.32
2019-05-06T02:46:04.574Z,9.38
2019-05-06T02:49:08.358Z,9.27
2019-05-06T02:51:37.907Z,9.15
2019-05-06T02:54:07.590Z,8.86
2019-05-06T02:56:37.119Z,8.83
2019-05-06T02:59:06.734Z,8.60
2019-05-06T03:01:36.308Z,8.12
2019-05-06T03:04:05.899Z,8.60
2019-05-06T03:06:35.386Z,8.92
2019-05-06T03:09:06.292Z,8.80
2019-05-06T03:11:35.878Z,8.54
2019-05-06T03:14:05.477Z,7.91
2019-05-06T03:16:35.046Z,8.00
2019-05-06T03:19:04.643Z,7.72
2019-05-06T03:21:46.393Z,8.90
2019-05-06T03:24:33.360Z,9.63
2019-05-06T03:27:04.606Z,9.04
2019-05-06T03:29:34.171Z,8.88
2019-05-06T03:32:07.004Z,9.17
2019-05-06T03:34:58.698Z,9.02
2019-05-06T03:37:08.434Z,8.52
2019-05-06T03:39:37.698Z,8.25
2019-05-06T03:42:07.213Z,8.68
2019-05-06T03:44:38.464Z,8.51
2019-05-06T03:47:23.827Z,8.84
2019-05-06T03:49:54.648Z,8.61
2019-05-06T03:52:27.674Z,8.82
2019-05-06T03:54:59.062Z,8.73
2019-05-06T03:57:29.646Z,8.51
2019-05-06T04:00:04.296Z,8.62
2019-05-06T04:02:33.652Z,8.52
2019-05-06T04:05:03.942Z,8.51
2019-05-06T04:07:34.486Z,8.14
2019-05-06T04:10:04.923Z,8.50
2019-05-06T04:12:35.119Z,7.85
2019-05-06T04:15:05.267Z,8.23
2019-05-06T04:17:46.494Z,8.48
2019-05-06T04:20:28.929Z,8.20
2019-05-06T04:23:17.625Z,8.66
2019-05-06T04:26:04.825Z,9.17
2019-05-06T04:28:36.179Z,9.35
2019-05-06T04:31:06.252Z,9.18
2019-05-06T04:33:35.968Z,8.03
2019-05-06T04:36:05.520Z,8.82
2019-05-06T04:38:35.237Z,9.12
2019-05-06T04:41:04.780Z,9.48
2019-05-06T04:43:34.716Z,9.22
2019-05-06T04:46:04.324Z,8.66
2019-05-06T04:48:33.984Z,8.50
2019-05-06T04:51:03.998Z,8.82
2019-05-06T04:53:34.206Z,9.23
2019-05-06T04:56:04.395Z,8.86
2019-05-06T04:58:34.373Z,8.15
2019-05-06T05:01:04.461Z,7.82
2019-05-06T05:03:34.073Z,7.39
2019-05-06T05:06:05.730Z,8.03
2019-05-06T05:08:38.078Z,8.57
2019-05-06T05:11:15.526Z,8.38
2019-05-06T05:14:02.980Z,8.63
2019-05-06T05:16:42.065Z,8.43
2019-05-06T05:19:12.640Z,9.04
2019-05-06T05:21:42.898Z,8.87
2019-05-06T05:24:12.661Z,8.14
2019-05-06T05:26:46.573Z,8.08
2019-05-06T05:29:14.089Z,8.70
2019-05-06T05:31:43.773Z,7.81
2019-05-06T05:34:13.288Z,7.36
2019-05-06T05:36:43.173Z,7.42
2019-05-06T05:39:12.790Z,7.51
2019-05-06T05:41:43.007Z,8.20
2019-05-06T05:44:32.910Z,8.07
2019-05-06T05:47:03.483Z,7.88
2019-05-06T05:49:42.074Z,8.96
2019-05-06T05:52:12.674Z,8.97
2019-05-06T05:54:42.442Z,9.51
2019-05-06T05:57:12.477Z,9.14
2019-05-06T05:59:42.281Z,9.45
2019-05-06T06:02:12.822Z,9.82
2019-05-06T06:04:53.746Z,10.12
2019-05-06T06:07:14.455Z,9.47
2019-05-06T06:09:52.511Z,10.06
2019-05-06T06:12:23.003Z,9.11
2019-05-06T06:15:14.688Z,9.27
2019-05-06T06:18:15.658Z,8.85
2019-05-06T06:20:55.301Z,9.22
2019-05-06T06:23:32.282Z,11.70
2019-05-06T06:26:04.027Z,11.60
2019-05-06T06:28:33.356Z,10.96
2019-05-06T06:31:12.351Z,9.71
2019-05-06T06:33:42.741Z,9.95
2019-05-06T06:36:23.196Z,10.04
2019-05-06T06:38:56.386Z,10.28
2019-05-06T06:42:12.630Z,10.13
2019-05-06T06:44:52.187Z,9.94
2019-05-06T06:47:22.638Z,9.98
2019-05-06T06:49:53.504Z,10.57
2019-05-06T06:52:23.357Z,10.29
2019-05-06T06:54:52.950Z,10.86
2019-05-06T06:57:42.394Z,11.32
2019-05-06T07:00:33.087Z,10.93
2019-05-06T07:03:05.886Z,10.33
2019-05-06T07:05:49.355Z,11.23
2019-05-06T07:08:32.050Z,11.02
2019-05-06T07:10:52.412Z,11.18
2019-05-06T07:13:23.201Z,11.07
2019-05-06T07:15:52.788Z,10.92
2019-05-06T07:18:22.662Z,11.38
2019-05-06T07:21:22.379Z,11.55
2019-05-06T07:23:53.018Z,11.40
2019-05-06T07:26:24.608Z,11.16
2019-05-06T07:28:54.225Z,11.15
2019-05-06T07:31:26.630Z,11.23
2019-05-06T07:33:55.052Z,10.95
2019-05-06T07:36:24.665Z,10.95
2019-05-06T07:38:54.300Z,10.83
2019-05-06T07:41:36.184Z,10.97
2019-05-06T07:44:15.281Z,10.95
2019-05-06T07:47:18.833Z,11.14
2019-05-06T07:49:48.428Z,11.75
2019-05-06T07:52:18.135Z,11.88
2019-05-06T07:54:47.708Z,11.68
2019-05-06T07:57:17.393Z,12.41
2019-05-06T07:59:48.227Z,11.94
2019-05-06T08:02:17.978Z,11.91
2019-05-06T08:04:47.539Z,11.62
2019-05-06T08:07:17.215Z,11.65
2019-05-06T08:09:46.897Z,11.81
2019-05-06T08:12:16.414Z,11.68
2019-05-06T08:14:46.132Z,11.75
2019-05-06T08:17:27.473Z,11.81
2019-05-06T08:19:57.020Z,12.09
2019-05-06T08:22:43.986Z,12.15
2019-05-06T08:25:13.822Z,12.18
2019-05-06T08:27:43.409Z,12.21
2019-05-06T08:30:13.467Z,12.28
2019-05-06T08:32:43.020Z,12.50
2019-05-06T08:35:13.739Z,12.64
2019-05-06T08:37:43.424Z,12.68
2019-05-06T08:40:54.967Z,12.59
2019-05-06T08:44:13.595Z,12.84
2019-05-06T08:46:44.520Z,13.17
2019-05-06T08:49:14.111Z,13.15
2019-05-06T08:51:53.822Z,13.12
2019-05-06T08:54:45.010Z,13.06
2019-05-06T08:57:14.615Z,13.24
2019-05-06T08:59:44.142Z,13.31
2019-05-06T09:02:13.960Z,13.48
2019-05-06T09:04:43.460Z,13.57
2019-05-06T09:07:13.073Z,13.50
2019-05-06T09:09:42.650Z,13.39
2019-05-06T09:12:13.019Z,13.43
2019-05-06T09:14:43.165Z,13.61
2019-05-06T09:17:12.792Z,13.58
2019-05-06T09:19:42.763Z,13.90
2019-05-06T09:22:12.969Z,13.85
2019-05-06T09:25:18.096Z,13.69
2019-05-06T09:28:13.239Z,13.75
2019-05-06T09:30:46.677Z,13.71
2019-05-06T09:33:18.612Z,13.85
2019-05-06T09:35:48.133Z,13.90
2019-05-06T09:38:17.642Z,13.80
2019-05-06T09:40:47.203Z,13.83
2019-05-06T09:43:16.719Z,13.86
2019-05-06T09:45:46.262Z,13.84
2019-05-06T09:48:22.430Z,13.88
2019-05-06T09:50:53.698Z,13.79
2019-05-06T09:53:29.590Z,13.92
2019-05-06T09:56:22.997Z,13.91
2019-05-06T09:58:53.037Z,13.81
2019-05-06T10:01:22.653Z,13.81
2019-05-06T10:03:53.102Z,13.86
2019-05-06T10:06:22.741Z,13.84
2019-05-06T10:08:52.350Z,13.93
2019-05-06T10:11:22.338Z,13.71
2019-05-06T10:13:52.502Z,13.48
2019-05-06T10:16:22.023Z,13.73
2019-05-06T10:18:52.410Z,13.77
2019-05-06T10:21:22.970Z,13.78
2019-05-06T10:23:52.910Z,13.82
2019-05-06T10:26:23.495Z,13.98
2019-05-06T10:29:19.538Z,13.94
2019-05-06T10:31:54.657Z,13.96
2019-05-06T10:34:33.828Z,13.89
2019-05-06T10:37:19.003Z,13.91
2019-05-06T10:39:52.192Z,13.85
2019-05-06T10:42:26.431Z,13.81
2019-05-06T10:45:14.864Z,13.82
2019-05-06T10:47:44.480Z,13.99
2019-05-06T10:50:14.132Z,13.95
2019-05-06T10:53:02.718Z,14.00
2019-05-06T10:55:32.664Z,13.98
2019-05-06T10:58:02.770Z,14.03
2019-05-06T11:00:33.149Z,14.10
2019-05-06T11:03:14.386Z,14.10
2019-05-06T11:05:43.289Z,14.16
2019-05-06T11:08:13.218Z,14.17
2019-05-06T11:10:45.310Z,14.17
2019-05-06T11:13:14.013Z,14.17
2019-05-06T11:15:46.563Z,14.21
2019-05-06T11:18:16.110Z,14.23
2019-05-06T11:20:45.712Z,14.21
2019-05-06T11:23:15.236Z,14.23
2019-05-06T11:25:44.893Z,14.27
2019-05-06T11:28:34.933Z,14.27
2019-05-06T11:31:17.395Z,14.29
2019-05-06T11:34:24.445Z,14.38
2019-05-06T11:37:15.060Z,14.39
2019-05-06T11:39:44.609Z,14.40
2019-05-06T11:42:27.993Z,14.45
2019-05-06T11:44:45.557Z,14.49
2019-05-06T11:47:15.131Z,14.49
2019-05-06T11:49:44.718Z,14.50
2019-05-06T11:52:14.305Z,14.78
2019-05-06T11:54:43.878Z,14.61
2019-05-06T11:57:14.423Z,14.63
2019-05-06T11:59:46.042Z,14.97
2019-05-06T12:02:18.909Z,14.73
2019-05-06T12:04:48.532Z,14.67
2019-05-06T12:07:18.093Z,14.61
2019-05-06T12:09:47.645Z,14.66
2019-05-06T12:12:17.230Z,14.67
2019-05-06T12:14:46.713Z,14.61
2019-05-06T12:17:16.346Z,14.62
2019-05-06T12:19:45.867Z,14.58
2019-05-06T12:22:15.461Z,14.57
2019-05-06T12:24:44.955Z,14.54
2019-05-06T12:27:33.536Z,14.54
2019-05-06T12:30:05.369Z,14.53
2019-05-06T12:32:43.309Z,14.54
2019-05-06T12:35:13.114Z,14.50
2019-05-06T12:37:44.466Z,14.50
2019-05-06T12:40:14.054Z,14.47
2019-05-06T12:42:53.262Z,14.45
2019-05-06T12:45:32.996Z,14.47
2019-05-06T12:48:09.464Z,14.45
2019-05-06T12:50:38.951Z,14.46
2019-05-06T12:53:08.496Z,14.49
2019-05-06T12:55:38.124Z,14.44
2019-05-06T12:58:07.634Z,14.46
2019-05-06T13:00:37.180Z,14.49
2019-05-06T13:03:06.721Z,14.50
2019-05-06T13:05:36.242Z,14.50
2019-05-06T13:08:06.690Z,14.49
2019-05-06T13:10:36.379Z,14.51
2019-05-06T13:13:05.977Z,14.49
2019-05-06T13:15:35.628Z,14.48
2019-05-06T13:18:07.107Z,14.47
2019-05-06T13:20:37.093Z,14.49
2019-05-06T13:23:20.850Z,14.50
2019-05-06T13:25:48.652Z,14.51
2019-05-06T13:28:22.231Z,14.44
2019-05-06T13:30:53.086Z,14.47
2019-05-06T13:33:35.312Z,14.48
2019-05-06T13:36:05.029Z,14.52
2019-05-06T13:38:34.544Z,14.56
2019-05-06T13:41:04.452Z,14.55
2019-05-06T13:43:45.460Z,14.59
2019-05-06T13:46:23.128Z,14.98
2019-05-06T13:49:09.699Z,14.96
2019-05-06T13:51:39.955Z,14.73
2019-05-06T13:54:12.868Z,14.69
2019-05-06T13:56:42.557Z,15.04
2019-05-06T13:59:12.927Z,16.45
2019-05-06T14:02:06.794Z,17.29
2019-05-06T14:04:35.655Z,17.37
2019-05-06T14:07:07.369Z,17.82
2019-05-06T14:09:40.279Z,17.80
2019-05-06T14:12:07.810Z,17.49
2019-05-06T14:14:37.327Z,17.98
2019-05-06T14:17:06.919Z,17.59
2019-05-06T14:19:36.618Z,18.15
2019-05-06T14:22:06.167Z,20.47
2019-05-06T14:24:37.382Z,20.52
2019-05-06T14:27:11.358Z,17.80
2019-05-06T14:29:49.994Z,18.07
2019-05-06T14:32:19.780Z,18.48
2019-05-06T14:34:49.295Z,18.04
2019-05-06T14:37:18.805Z,17.30
2019-05-06T14:39:58.081Z,17.48
2019-05-06T14:42:22.277Z,17.34
2019-05-06T14:44:51.751Z,17.07
2019-05-06T14:47:26.482Z,16.89
2019-05-06T14:49:56.638Z,16.58
2019-05-06T14:52:26.193Z,16.41
2019-05-06T14:54:59.773Z,16.34
2019-05-06T14:57:29.290Z,16.26
2019-05-06T14:59:58.835Z,16.12
2019-05-06T15:02:28.559Z,15.75
2019-05-06T15:04:58.217Z,15.65
2019-05-06T15:07:27.837Z,15.61
2019-05-06T15:10:15.016Z,15.66
2019-05-06T15:12:28.915Z,15.62
2019-05-06T15:14:58.549Z,15.25
2019-05-06T15:17:28.116Z,14.66
2019-05-06T15:19:57.735Z,14.25
2019-05-06T15:22:27.225Z,14.29
2019-05-06T15:24:56.942Z,14.57
2019-05-06T15:27:26.559Z,14.73
2019-05-06T15:29:57.919Z,14.27
2019-05-06T15:32:36.163Z,13.78
2019-05-06T15:35:33.107Z,13.55
2019-05-06T15:38:08.332Z,13.63
2019-05-06T15:40:38.033Z,13.62
2019-05-06T15:43:07.851Z,13.70
2019-05-06T15:45:37.975Z,13.78
2019-05-06T15:48:07.554Z,13.74
2019-05-06T15:50:37.387Z,13.60
2019-05-06T15:53:07.318Z,13.76
2019-05-06T15:55:37.045Z,13.48
2019-05-06T15:58:06.852Z,13.47
2019-05-06T16:00:36.683Z,13.36
2019-05-06T16:03:06.375Z,13.58
2019-05-06T16:05:35.985Z,13.42
2019-05-06T16:08:05.606Z,13.30
2019-05-06T16:10:51.419Z,13.45
2019-05-06T16:13:06.580Z,13.69
2019-05-06T16:15:36.191Z,13.89
2019-05-06T16:18:05.777Z,13.67
2019-05-06T16:20:35.707Z,13.65
2019-05-06T16:23:12.398Z,13.59
2019-05-06T16:25:42.313Z,13.42
2019-05-06T16:28:13.262Z,13.88
2019-05-06T16:30:42.798Z,13.87
2019-05-06T16:33:15.284Z,13.52
2019-05-06T16:35:45.246Z,13.60
2019-05-06T16:38:15.149Z,13.49
2019-05-06T16:40:45.431Z,13.31
2019-05-06T16:43:14.965Z,13.30
2019-05-06T16:45:46.036Z,13.47
2019-05-06T16:48:15.798Z,13.38
2019-05-06T16:50:45.404Z,13.52
2019-05-06T16:53:15.152Z,13.49
2019-05-06T16:56:02.258Z,13.81
2019-05-06T16:58:34.414Z,13.96
2019-05-06T17:01:04.188Z,14.00
2019-05-06T17:03:43.357Z,13.97
2019-05-06T17:06:18.600Z,13.56
2019-05-06T17:08:48.324Z,13.56
2019-05-06T17:11:27.905Z,13.41
2019-05-06T17:13:49.285Z,13.17
2019-05-06T17:16:18.931Z,13.50
2019-05-06T17:18:48.544Z,13.23
2019-05-06T17:21:18.093Z,13.19
2019-05-06T17:23:47.703Z,13.20
2019-05-06T17:26:17.320Z,13.06
2019-05-06T17:29:18.017Z,12.98
2019-05-06T17:31:57.159Z,12.63
2019-05-06T17:34:31.182Z,12.79
2019-05-06T17:37:06.433Z,12.57
2019-05-06T17:39:36.091Z,12.84
2019-05-06T17:42:05.746Z,12.56
2019-05-06T17:44:35.222Z,12.71
2019-05-06T17:47:17.944Z,12.86
2019-05-06T17:49:47.431Z,12.88
2019-05-06T17:52:22.355Z,13.01
2019-05-06T17:54:52.746Z,12.82
2019-05-06T17:57:22.614Z,12.28
2019-05-06T17:59:52.932Z,12.90
2019-05-06T18:02:24.138Z,12.83
2019-05-06T18:04:53.649Z,12.60
2019-05-06T18:07:23.298Z,12.86
2019-05-06T18:09:52.837Z,12.53
2019-05-06T18:12:23.215Z,12.68
2019-05-06T18:14:53.470Z,12.53
2019-05-06T18:17:23.131Z,12.75
2019-05-06T18:19:52.778Z,12.69
2019-05-06T18:22:22.782Z,12.57
2019-05-06T18:24:52.643Z,12.49
2019-05-06T18:27:22.731Z,12.29
2019-05-06T18:29:53.216Z,12.31
2019-05-06T18:32:23.457Z,12.22
2019-05-06T18:34:53.202Z,12.02
2019-05-06T18:37:23.357Z,12.20
2019-05-06T18:39:53.194Z,11.98
2019-05-06T18:42:23.769Z,11.86
2019-05-06T18:44:53.412Z,11.86
2019-05-06T18:47:23.104Z,11.80
2019-05-06T18:49:52.662Z,11.97
2019-05-06T18:52:22.965Z,11.73
2019-05-06T18:54:52.683Z,11.72
2019-05-06T18:57:22.749Z,11.83
2019-05-06T18:59:53.315Z,11.62
2019-05-06T19:02:23.152Z,11.62
2019-05-06T19:05:09.029Z,11.23
2019-05-06T19:07:38.691Z,11.72
2019-05-06T19:10:22.439Z,11.15
2019-05-06T19:12:52.784Z,11.21
2019-05-06T19:15:22.519Z,11.49
2019-05-06T19:17:52.720Z,11.51
2019-05-06T19:20:24.500Z,11.63
2019-05-06T19:22:53.703Z,11.57
2019-05-06T19:25:26.339Z,11.80
2019-05-06T19:27:54.617Z,11.88
2019-05-06T19:30:24.308Z,11.53
2019-05-06T19:32:54.543Z,11.55
2019-05-06T19:35:24.156Z,11.82
2019-05-06T19:37:53.723Z,11.81
2019-05-06T19:40:23.261Z,11.72
2019-05-06T19:42:53.367Z,11.44
2019-05-06T19:45:23.041Z,11.70
2019-05-06T19:47:52.555Z,11.89
2019-05-06T19:50:25.706Z,11.84
2019-05-06T19:52:53.422Z,11.53
2019-05-06T19:55:23.212Z,11.44
2019-05-06T19:57:52.781Z,11.46
2019-05-06T20:00:23.730Z,11.72
2019-05-06T20:02:53.528Z,11.75
2019-05-06T20:05:35.434Z,11.52
2019-05-06T20:08:23.016Z,11.65
2019-05-06T20:11:09.946Z,11.02
2019-05-06T20:13:39.568Z,11.36
2019-05-06T20:16:09.148Z,10.99
2019-05-06T20:18:38.730Z,11.38
2019-05-06T20:21:08.382Z,11.22
2019-05-06T20:23:38.013Z,11.48
2019-05-06T20:26:07.619Z,11.25
2019-05-06T20:28:37.176Z,11.25
2019-05-06T20:31:06.784Z,11.15
2019-05-06T20:33:36.373Z,11.36
2019-05-06T20:36:06.074Z,10.56
2019-05-06T20:38:35.692Z,10.72
2019-05-06T20:41:05.343Z,10.82
2019-05-06T20:43:35.210Z,10.83
2019-05-06T20:46:04.918Z,10.74
2019-05-06T20:48:34.550Z,10.88
2019-05-06T20:51:04.092Z,10.91
2019-05-06T20:53:33.844Z,11.06
2019-05-06T20:56:03.684Z,11.02
2019-05-06T20:58:33.267Z,10.79
2019-05-06T21:01:03.053Z,10.86
2019-05-06T21:03:32.873Z,10.97
2019-05-06T21:06:02.678Z,10.67
2019-05-06T21:08:32.843Z,10.76
2019-05-06T21:11:04.067Z,10.91
2019-05-06T21:13:35.562Z,11.00
2019-05-06T21:16:05.347Z,11.09
2019-05-06T21:18:34.935Z,10.68
2019-05-06T21:21:04.642Z,10.80
2019-05-06T21:23:34.319Z,10.45
2019-05-06T21:26:03.971Z,10.61
2019-05-06T21:28:33.608Z,10.67
2019-05-06T21:31:03.266Z,10.68
2019-05-06T21:33:33.060Z,10.79
2019-05-06T21:36:03.167Z,10.99
2019-05-06T21:38:32.837Z,10.81
2019-05-06T21:41:02.417Z,10.97
2019-05-06T21:43:43.812Z,10.72
2019-05-06T21:46:03.476Z,10.91
2019-05-06T21:48:33.719Z,10.96
2019-05-06T21:51:03.379Z,10.96
2019-05-06T21:53:33.009Z,11.18
2019-05-06T21:56:02.577Z,11.09
2019-05-06T21:58:32.158Z,11.03
2019-05-06T22:01:06.554Z,10.72
2019-05-06T22:03:36.296Z,10.60
2019-05-06T22:06:06.007Z,10.38
2019-05-06T22:08:35.496Z,10.23
2019-05-06T22:11:05.326Z,10.15
2019-05-06T22:13:34.883Z,10.41
2019-05-06T22:16:05.017Z,10.53
2019-05-06T22:18:34.633Z,10.92
2019-05-06T22:21:12.512Z,10.75
2019-05-06T22:23:55.617Z,10.65
2019-05-06T22:26:25.496Z,10.81
2019-05-06T22:28:55.327Z,11.04
2019-05-06T22:31:25.535Z,11.01
2019-05-06T22:33:55.329Z,10.95
2019-05-06T22:36:25.029Z,11.01
2019-05-06T22:38:54.626Z,11.19
2019-05-06T22:41:25.427Z,10.45
2019-05-06T22:43:55.132Z,10.89
2019-05-06T22:46:24.723Z,11.66
2019-05-06T22:48:54.770Z,11.58
2019-05-06T22:51:24.651Z,11.49
2019-05-06T22:53:54.553Z,11.26
2019-05-06T22:56:24.453Z,11.34
2019-05-06T22:58:54.004Z,11.27
2019-05-06T23:01:54.343Z,11.22
2019-05-06T23:04:24.086Z,10.73
2019-05-06T23:06:53.889Z,10.43
2019-05-06T23:09:24.948Z,10.46
2019-05-06T23:11:54.675Z,10.59
2019-05-06T23:14:31.275Z,10.25
2019-05-06T23:16:55.453Z,10.16
2019-05-06T23:19:25.117Z,10.17
2019-05-06T23:21:54.654Z,9.65
2019-05-06T23:24:24.254Z,10.18
2019-05-06T23:26:54.787Z,10.50
2019-05-06T23:29:24.534Z,10.50
2019-05-06T23:31:54.127Z,9.88
2019-05-06T23:34:23.745Z,9.38
2019-05-06T23:37:27.365Z,9.61
2019-05-06T23:40:38.301Z,9.74
2019-05-06T23:43:43.700Z,9.44
2019-05-06T23:46:49.059Z,9.50
2019-05-06T23:49:54.348Z,9.82
2019-05-06T23:52:59.687Z,9.65
2019-05-06T23:56:05.056Z,9.90
2019-05-06T23:58:34.540Z,9.85
